Time;durP1;ratioP1;P1;durP2;ratioP2;P2;SDS_P1;SDS_P2;PMS_P1;PMS_P2;Temp;Humidity;BMP_temperature;BMP_pressure;BME280_temperature;BME280_humidity;BME280_pressure;Samples;Min_cycle;Max_cycle;Signal;HPM_P1;HPM_P2
2021/12/23 00:01:56;;;;;;;119.30;49.55;;;;;;;-4.35;71.42;101105.58;2044025;87;27678;-64
2021/12/23 00:04:58;;;;;;;127.67;51.77;;;;;;;-4.38;71.57;101099.83;2043926;87;30017;-67
2021/12/23 00:08:00;;;;;;;125.92;51.77;;;;;;;-4.42;71.72;101094.09;2043582;87;31084;-67
2021/12/23 00:11:02;;;;;;;120.22;51.00;;;;;;;-4.45;71.75;101090.08;2043470;87;34234;-70
2021/12/23 00:14:07;;;;;;;128.78;50.50;;;;;;;-4.47;71.74;101089.16;2044026;87;30625;-72
2021/12/23 00:17:22;;;;;;;125.15;53.92;;;;;;;-4.48;71.75;101088.69;2043998;87;27706;-68
2021/12/23 00:23:28;;;;;;;117.55;50.90;;;;;;;-4.54;71.82;101084.20;2043533;87;31026;-59
2021/12/23 00:26:32;;;;;;;104.92;48.95;;;;;;;-4.54;71.85;101088.12;2017652;87;29433;-62
2021/12/23 00:29:34;;;;;;;117.70;51.20;;;;;;;-4.53;71.90;101092.50;2043533;87;30520;-61
2021/12/23 00:32:37;;;;;;;109.12;48.38;;;;;;;-4.54;71.98;101092.05;2043887;87;28291;-63
2021/12/23 00:35:39;;;;;;;112.12;47.40;;;;;;;-4.56;71.96;101087.19;2043946;87;28566;-59
2021/12/23 00:38:52;;;;;;;110.17;48.08;;;;;;;-4.56;71.98;101087.63;2043572;87;31527;-59
2021/12/23 00:41:52;;;;;;;108.60;48.55;;;;;;;-4.60;71.99;101081.02;2043426;87;33005;-70
2021/12/23 00:44:54;;;;;;;101.30;48.40;;;;;;;-4.60;72.11;101084.03;2043800;87;29256;-60
2021/12/23 00:47:56;;;;;;;117.72;48.10;;;;;;;-4.64;72.14;101080.47;2044111;87;28285;-70
2021/12/23 00:50:58;;;;;;;106.50;46.80;;;;;;;-4.66;72.18;101074.75;2043614;87;30080;-67
2021/12/23 00:54:06;;;;;;;117.20;48.33;;;;;;;-4.67;72.29;101072.54;2043620;87;31750;-65
2021/12/23 00:57:08;;;;;;;117.47;51.28;;;;;;;-4.68;72.35;101069.46;2043543;87;33532;-70
2021/12/23 01:00:15;;;;;;;116.00;50.73;;;;;;;-4.71;72.32;101069.81;2043847;87;29461;-63
2021/12/23 01:03:19;;;;;;;128.27;49.70;;;;;;;-4.74;72.70;101073.25;2043826;87;27734;-63
2021/12/23 01:06:20;;;;;;;89.17;37.47;;;;;;;-4.78;72.53;101068.78;2043710;87;29864;-63
2021/12/23 01:09:23;;;;;;;121.02;50.12;;;;;;;-4.78;72.64;101060.94;2043836;87;31582;-62
2021/12/23 01:12:31;;;;;;;121.57;51.05;;;;;;;-4.80;72.67;101052.17;2043696;87;33745;-68
2021/12/23 01:18:44;;;;;;;122.40;50.23;;;;;;;-4.80;72.86;101052.17;2043553;87;27712;-66
2021/12/23 01:21:46;;;;;;;126.30;52.95;;;;;;;-4.80;72.81;101053.48;2043180;86;29643;-63
2021/12/23 01:24:50;;;;;;;130.50;53.63;;;;;;;-4.80;72.80;101053.08;2035290;87;31091;-71
2021/12/23 01:27:54;;;;;;;133.25;58.68;;;;;;;-4.80;72.76;101051.77;2035732;87;33018;-61
2021/12/23 01:30:56;;;;;;;143.78;57.93;;;;;;;-4.78;72.83;101053.97;2035822;87;29336;-70
2021/12/23 01:33:58;;;;;;;126.50;50.65;;;;;;;-4.79;72.76;101043.05;2036003;87;27620;-71
2021/12/23 01:37:03;;;;;;;125.72;52.08;;;;;;;-4.77;72.79;101044.41;2035642;87;28744;-70
2021/12/23 01:40:07;;;;;;;129.40;52.55;;;;;;;-4.77;72.81;101045.72;2034974;87;31069;-67
2021/12/23 01:43:09;;;;;;;127.87;51.65;;;;;;;-4.78;72.95;101034.36;2035746;87;32987;-67
2021/12/23 01:46:11;;;;;;;121.55;49.53;;;;;;;-4.78;72.89;101029.13;2035744;87;29360;-63
2021/12/23 01:49:13;;;;;;;123.55;54.00;;;;;;;-4.77;72.90;101023.50;2035863;87;27749;-61
2021/12/23 01:52:14;;;;;;;126.62;49.88;;;;;;;-4.77;72.82;101019.58;2035399;87;28903;-62
2021/12/23 01:55:16;;;;;;;121.33;50.40;;;;;;;-4.76;72.82;101005.67;2035652;87;30952;-66
2021/12/23 01:58:18;;;;;;;120.35;54.13;;;;;;;-4.77;72.79;101002.59;2035623;87;34183;-59
2021/12/23 02:01:20;;;;;;;130.15;52.40;;;;;;;-4.78;72.81;100994.29;2035675;87;29710;-71
2021/12/23 02:04:22;;;;;;;134.22;55.50;;;;;;;-4.81;72.82;100991.59;2035571;87;27727;-74
2021/12/23 02:07:24;;;;;;;216.30;81.63;;;;;;;-4.84;72.83;100980.66;2035428;87;29521;-71
2021/12/23 02:10:28;;;;;;;171.02;69.87;;;;;;;-4.85;72.88;100974.97;2035337;87;32305;-60
2021/12/23 02:13:31;;;;;;;151.22;63.02;;;;;;;-4.85;73.03;100972.34;2035599;87;33121;-60
2021/12/23 02:16:33;;;;;;;186.40;80.50;;;;;;;-4.85;73.04;100964.52;2035413;87;30517;-75
2021/12/23 02:19:37;;;;;;;163.57;69.03;;;;;;;-4.86;73.00;100967.06;2035546;87;27701;-76
2021/12/23 02:22:41;;;;;;;164.77;67.77;;;;;;;-4.86;73.03;100956.61;2014206;88;28673;-72
2021/12/23 02:25:43;;;;;;;162.07;71.63;;;;;;;-4.89;73.04;100963.56;2019049;88;31257;-63
2021/12/23 02:28:45;;;;;;;165.52;69.37;;;;;;;-4.90;73.06;100952.65;2018695;88;33786;-59
2021/12/23 02:31:49;;;;;;;138.77;59.80;;;;;;;-4.93;73.05;100938.60;2018265;88;29923;-59
2021/12/23 02:34:51;;;;;;;200.83;83.67;;;;;;;-4.92;73.08;100933.84;2019115;88;27658;-59
2021/12/23 02:37:53;;;;;;;140.90;60.25;;;;;;;-4.91;73.14;100932.59;2018543;88;29151;-60
2021/12/23 02:40:55;;;;;;;126.15;59.15;;;;;;;-4.89;73.11;100927.38;2018404;88;31244;-59
2021/12/23 02:43:57;;;;;;;130.50;56.48;;;;;;;-4.88;73.10;100921.31;2018719;88;33011;-60
2021/12/23 02:46:59;;;;;;;128.57;59.20;;;;;;;-4.91;73.04;100925.16;2018722;88;29358;-64
2021/12/23 02:50:00;;;;;;;127.17;56.92;;;;;;;-4.91;73.12;100914.70;2018921;88;27723;-63
2021/12/23 02:53:02;;;;;;;122.00;56.35;;;;;;;-4.93;73.07;100905.53;2018463;88;28622;-63
2021/12/23 02:56:07;;;;;;;123.97;53.40;;;;;;;-4.94;73.09;100901.16;2034262;86;31717;-72
2021/12/23 02:59:09;;;;;;;122.82;54.48;;;;;;;-4.97;73.04;100897.59;2051228;86;34048;-62
2021/12/23 03:02:11;;;;;;;126.00;57.65;;;;;;;-5.01;73.08;100891.39;2051270;86;30545;-59
2021/12/23 03:05:14;;;;;;;121.97;54.53;;;;;;;-5.02;73.06;100883.53;2052277;86;27695;-60
2021/12/23 03:08:18;;;;;;;105.70;51.60;;;;;;;-5.01;73.13;100883.55;2051569;86;29912;-76
2021/12/23 03:11:23;;;;;;;116.37;51.48;;;;;;;-5.01;73.11;100879.63;2050627;86;31853;-69
2021/12/23 03:14:25;;;;;;;110.48;47.90;;;;;;;-5.01;73.09;100874.41;2051898;86;33071;-60
2021/12/23 03:17:27;;;;;;;117.28;49.93;;;;;;;-5.02;73.07;100871.33;2051857;86;29508;-64
2021/12/23 03:20:30;;;;;;;99.37;46.13;;;;;;;-5.01;73.05;100865.27;2026956;86;27686;-59
2021/12/23 03:23:33;;;;;;;113.97;47.93;;;;;;;-5.01;73.07;100861.34;2051658;86;29539;-65
2021/12/23 03:26:35;;;;;;;107.45;44.38;;;;;;;-5.00;73.01;100855.27;2051475;86;31106;-60
2021/12/23 03:29:39;;;;;;;98.75;44.18;;;;;;;-5.00;73.00;100846.56;2051588;86;34240;-60
2021/12/23 03:32:40;;;;;;;105.65;47.17;;;;;;;-5.01;73.04;100846.11;2051492;86;30671;-60
2021/12/23 03:35:42;;;;;;;103.50;43.90;;;;;;;-5.01;72.98;100834.35;2051852;86;27686;-60
2021/12/23 03:38:44;;;;;;;93.85;44.53;;;;;;;-5.01;73.05;100831.73;2051761;86;29726;-76
2021/12/23 03:41:47;;;;;;;109.12;47.03;;;;;;;-4.99;73.03;100826.13;2051727;86;31618;-70
2021/12/23 03:44:49;;;;;;;96.92;43.48;;;;;;;-4.98;73.02;100827.89;2051826;86;33135;-60
2021/12/23 03:47:51;;;;;;;99.28;43.75;;;;;;;-5.00;72.96;100825.23;2051405;86;30601;-60
2021/12/23 03:50:53;;;;;;;100.53;44.05;;;;;;;-5.01;72.94;100823.91;2051566;86;27733;-70
2021/12/23 03:53:55;;;;;;;111.25;52.27;;;;;;;-5.02;72.96;100816.47;2051731;86;28695;-60
2021/12/23 03:56:58;;;;;;;106.43;47.25;;;;;;;-5.02;72.93;100810.37;2051611;86;32213;-60
2021/12/23 04:00:00;;;;;;;102.58;43.28;;;;;;;-5.01;73.04;100808.23;2051634;86;33908;-59
2021/12/23 04:03:02;;;;;;;92.85;40.80;;;;;;;-5.00;73.00;100807.38;2051456;86;30334;-60
2021/12/23 04:06:04;;;;;;;88.22;40.95;;;;;;;-5.00;72.99;100807.38;2051756;86;27650;-59
2021/12/23 04:09:06;;;;;;;93.20;41.85;;;;;;;-4.99;72.96;100801.31;2051401;86;30773;-59
2021/12/23 04:12:09;;;;;;;94.22;41.00;;;;;;;-4.99;72.90;100796.08;2052000;86;30857;-77
2021/12/23 04:15:11;;;;;;;85.90;39.30;;;;;;;-4.97;72.94;100791.78;2051739;86;33818;-69
2021/12/23 04:18:13;;;;;;;96.47;42.40;;;;;;;-4.96;72.91;100788.31;2051770;86;30583;-65
2021/12/23 04:21:15;;;;;;;97.25;42.78;;;;;;;-4.96;72.86;100780.04;2051683;86;27710;-72
2021/12/23 04:24:18;;;;;;;92.97;41.95;;;;;;;-4.95;72.82;100778.30;2051994;86;29021;-65
2021/12/23 04:27:19;;;;;;;95.90;42.35;;;;;;;-4.97;72.75;100773.48;2051786;86;31076;-69
2021/12/23 04:30:23;;;;;;;91.50;41.33;;;;;;;-4.97;72.80;100769.13;2051493;86;34184;-70
2021/12/23 04:33:26;;;;;;;86.95;39.90;;;;;;;-4.99;72.73;100761.68;2051845;86;30184;-68
2021/12/23 04:36:29;;;;;;;97.92;40.40;;;;;;;-4.97;72.76;100760.42;2051561;86;27640;-68
2021/12/23 04:39:31;;;;;;;99.72;40.95;;;;;;;-4.97;72.81;100749.97;2051892;86;29354;-65
2021/12/23 04:42:33;;;;;;;97.45;41.48;;;;;;;-4.98;72.75;100744.29;2051886;86;31468;-61
2021/12/23 04:45:36;;;;;;;97.17;41.90;;;;;;;-4.96;72.76;100743.90;2052204;86;33688;-60
2021/12/23 04:48:38;;;;;;;102.92;41.37;;;;;;;-4.97;72.67;100735.16;2051802;86;29326;-59
2021/12/23 04:51:40;;;;;;;83.35;39.20;;;;;;;-4.97;72.70;100731.24;2051892;86;27672;-61
2021/12/23 04:54:42;;;;;;;96.32;40.73;;;;;;;-4.97;72.70;100722.09;2051871;86;29106;-61
2021/12/23 04:57:44;;;;;;;97.75;42.38;;;;;;;-4.96;72.70;100722.55;2051479;86;32242;-65
2021/12/23 05:00:48;;;;;;;86.87;37.20;;;;;;;-4.96;72.67;100722.55;2051524;86;33174;-74
2021/12/23 05:03:50;;;;;;;96.55;41.15;;;;;;;-4.95;72.69;100713.88;2051862;86;29347;-65
2021/12/23 05:06:51;;;;;;;89.97;39.95;;;;;;;-4.95;72.65;100704.73;2052031;86;27668;-71
2021/12/23 05:09:53;;;;;;;92.80;39.95;;;;;;;-4.94;72.64;100703.88;2051772;86;30045;-61
2021/12/23 05:12:56;;;;;;;97.00;42.40;;;;;;;-4.93;72.64;100687.35;2051820;86;32229;-74
2021/12/23 05:15:57;;;;;;;104.25;41.92;;;;;;;-4.91;72.63;100688.27;2051740;86;33851;-72
2021/12/23 05:18:59;;;;;;;100.38;40.70;;;;;;;-4.90;72.62;100679.58;2052171;86;29952;-68
2021/12/23 05:22:01;;;;;;;104.23;44.45;;;;;;;-4.90;72.58;100685.22;2051624;86;27650;-63
2021/12/23 05:25:07;;;;;;;109.57;42.95;;;;;;;-4.89;72.64;100680.45;2045666;86;30145;-72
2021/12/23 05:28:09;;;;;;;78.00;35.40;;;;;;;-4.86;72.67;100678.30;2042312;87;31881;-59
2021/12/23 05:31:10;;;;;;;110.42;43.92;;;;;;;-4.86;72.63;100679.61;2042155;87;33381;-59
2021/12/23 05:34:12;;;;;;;97.17;42.27;;;;;;;-4.84;72.72;100671.38;2080635;85;29312;-59
2021/12/23 05:37:14;;;;;;;105.80;43.70;;;;;;;-4.83;72.64;100675.76;2080803;85;27714;-59
2021/12/23 05:40:19;;;;;;;97.25;43.02;;;;;;;-4.80;72.78;100673.21;2080653;85;28580;-59
2021/12/23 05:43:21;;;;;;;101.25;43.73;;;;;;;-4.77;72.72;100667.61;2080302;85;32246;-65
2021/12/23 05:46:24;;;;;;;97.05;40.70;;;;;;;-4.76;72.60;100658.92;2080553;85;32736;-62
2021/12/23 05:49:26;;;;;;;97.10;40.78;;;;;;;-4.75;72.59;100652.84;2080482;85;30128;-64
2021/12/23 05:52:27;;;;;;;94.60;41.37;;;;;;;-4.75;72.58;100645.44;2081073;85;27674;-61
2021/12/23 05:55:29;;;;;;;99.10;43.73;;;;;;;-4.74;72.54;100641.53;2081024;85;29172;-60
2021/12/23 05:58:31;;;;;;;99.87;41.42;;;;;;;-4.71;72.56;100634.16;2080725;85;31452;-59
2021/12/23 06:01:33;;;;;;;94.70;42.62;;;;;;;-4.73;72.51;100626.31;2080328;85;34331;-59
2021/12/23 06:04:36;;;;;;;98.52;42.38;;;;;;;-4.76;72.48;100623.63;2080421;85;29385;-59
2021/12/23 06:07:38;;;;;;;100.95;42.65;;;;;;;-4.76;72.50;100626.69;2081235;85;28164;-59
2021/12/23 06:10:40;;;;;;;99.03;41.20;;;;;;;-4.77;72.49;100628.84;2080812;85;29033;-59
2021/12/23 06:13:42;;;;;;;89.83;40.58;;;;;;;-4.77;72.63;100614.03;2080773;85;32171;-60
2021/12/23 06:16:44;;;;;;;86.53;38.50;;;;;;;-4.74;72.63;100609.30;2080765;85;33374;-61
2021/12/23 06:19:45;;;;;;;89.03;37.88;;;;;;;-4.70;72.66;100611.54;2080798;85;29144;-60
2021/12/23 06:22:47;;;;;;;86.05;37.88;;;;;;;-4.66;72.68;100606.83;2080511;85;27679;-60
2021/12/23 06:25:49;;;;;;;91.28;39.40;;;;;;;-4.62;72.65;100602.98;2080268;85;30095;-59
2021/12/23 06:28:51;;;;;;;88.12;36.55;;;;;;;-4.58;72.62;100606.52;2080796;85;32262;-66
2021/12/23 06:31:53;;;;;;;82.22;36.28;;;;;;;-4.52;72.72;100609.25;2080347;85;34374;-70
2021/12/23 06:34:54;;;;;;;81.87;36.68;;;;;;;-4.47;72.65;100608.02;2080529;85;30680;-77
2021/12/23 06:37:59;;;;;;;84.67;39.05;;;;;;;-4.43;72.57;100604.60;2080454;85;27743;-61
2021/12/23 06:41:02;;;;;;;74.50;36.13;;;;;;;-4.39;72.58;100598.58;2080712;85;28738;-75
2021/12/23 06:44:04;;;;;;;78.17;34.80;;;;;;;-4.33;72.58;100597.79;2080661;85;32005;-68
2021/12/23 06:47:08;;;;;;;77.22;36.53;;;;;;;-4.28;72.46;100589.56;2080787;85;32424;-73
2021/12/23 06:50:12;;;;;;;76.97;34.85;;;;;;;-4.21;72.56;100591.44;2080978;85;29348;-76
2021/12/23 06:53:14;;;;;;;77.62;34.85;;;;;;;-4.15;72.46;100582.80;2080929;85;27688;-70
2021/12/23 06:56:18;;;;;;;78.47;34.80;;;;;;;-4.08;72.51;100586.37;2080596;85;29403;-77
2021/12/23 06:59:20;;;;;;;78.55;35.08;;;;;;;-4.03;72.39;100580.80;2080923;85;31574;-69
2021/12/23 07:02:23;;;;;;;73.72;32.20;;;;;;;-4.00;72.28;100579.54;2080401;85;34386;-74
2021/12/23 07:05:25;;;;;;;70.42;31.17;;;;;;;-3.94;72.25;100572.20;2080960;85;29336;-76
2021/12/23 07:08:29;;;;;;;76.25;33.63;;;;;;;-3.92;72.22;100563.50;2080887;85;27700;-73
2021/12/23 07:11:32;;;;;;;73.87;34.55;;;;;;;-3.85;72.22;100566.66;2080852;85;28675;-75
2021/12/23 07:14:36;;;;;;;67.25;31.90;;;;;;;-3.79;72.25;100551.47;2080817;85;31059;-72
2021/12/23 07:17:38;;;;;;;66.42;30.48;;;;;;;-3.73;72.20;100555.48;2080392;85;33741;-75
2021/12/23 07:20:40;;;;;;;66.72;31.52;;;;;;;-3.66;72.22;100550.77;2080999;85;29275;-72
2021/12/23 07:23:42;;;;;;;69.35;31.37;;;;;;;-3.57;72.24;100543.89;2080786;85;27719;-71
2021/12/23 07:26:45;;;;;;;61.08;29.10;;;;;;;-3.49;72.22;100545.30;2072306;85;29841;-73
2021/12/23 07:29:46;;;;;;;64.42;30.92;;;;;;;-3.40;72.25;100544.08;2072266;85;32385;-60
2021/12/23 07:32:52;;;;;;;66.95;30.40;;;;;;;-3.31;72.23;100542.89;2071824;85;34319;-60
2021/12/23 07:35:53;;;;;;;63.78;29.52;;;;;;;-3.23;72.16;100538.59;2072441;85;30467;-64
2021/12/23 07:38:56;;;;;;;62.48;30.72;;;;;;;-3.12;72.21;100536.50;2071875;85;27757;-73
2021/12/23 07:41:58;;;;;;;63.17;31.75;;;;;;;-3.03;72.01;100533.09;2072135;85;28828;-61
2021/12/23 07:45:03;;;;;;;64.35;30.50;;;;;;;-2.95;72.10;100524.89;2072384;85;32261;-74
2021/12/23 07:48:04;;;;;;;;;;;;;;;-2.86;72.04;100512.30;2074710;85;33045;-68
2021/12/23 07:51:06;;;;;;;64.15;29.98;;;;;;;-2.79;72.03;100508.44;2072218;85;29767;-66
2021/12/23 07:54:08;;;;;;;57.15;29.85;;;;;;;-2.72;71.93;100505.43;2072060;85;27749;-66
2021/12/23 07:57:12;;;;;;;61.95;30.75;;;;;;;-2.65;72.06;100505.94;2072090;85;28696;-68
2021/12/23 08:00:16;;;;;;;57.33;28.75;;;;;;;-2.56;71.97;100510.34;2071996;85;31083;-67
2021/12/23 08:03:18;;;;;;;59.18;27.80;;;;;;;-2.47;71.93;100511.73;2072065;85;33837;-63
2021/12/23 08:06:20;;;;;;;57.33;27.87;;;;;;;-2.37;71.93;100500.88;2071758;85;30260;-66
2021/12/23 08:09:26;;;;;;;60.40;30.15;;;;;;;-2.30;71.74;100497.86;2071959;85;27734;-72
2021/12/23 08:12:28;;;;;;;70.92;29.52;;;;;;;-2.22;71.91;100488.72;2071660;85;30002;-66
2021/12/23 08:15:30;;;;;;;53.70;27.05;;;;;;;-2.15;71.75;100487.45;2071663;85;32380;-75
2021/12/23 08:18:33;;;;;;;58.20;28.32;;;;;;;-2.07;71.80;100488.80;2071746;85;34193;-64
2021/12/23 08:21:35;;;;;;;60.28;27.40;;;;;;;-2.01;71.70;100490.16;2071704;85;30293;-75
2021/12/23 08:24:37;;;;;;;51.55;26.37;;;;;;;-1.94;71.76;100483.19;2073281;85;27760;-72
2021/12/23 08:27:40;;;;;;;52.70;27.27;;;;;;;-1.86;71.66;100456.95;2080177;85;29951;-69
2021/12/23 08:30:42;;;;;;;59.75;28.27;;;;;;;-1.77;71.76;100452.17;2080215;85;31236;-69
2021/12/23 08:33:44;;;;;;;54.67;27.17;;;;;;;-1.70;71.72;100441.70;2080188;85;33914;-75
2021/12/23 08:36:46;;;;;;;49.90;27.58;;;;;;;-1.62;71.72;100446.97;2080248;85;30532;-72
2021/12/23 08:39:49;;;;;;;56.55;27.55;;;;;;;-1.50;71.65;100441.30;2080301;85;27766;-71
2021/12/23 08:42:52;;;;;;;51.20;26.80;;;;;;;-1.41;71.69;100443.50;2080272;85;29558;-66
2021/12/23 08:45:54;;;;;;;54.80;26.87;;;;;;;-1.28;71.74;100443.09;2080275;85;31938;-75
2021/12/23 08:48:56;;;;;;;51.42;26.97;;;;;;;-1.16;71.64;100439.61;2080212;85;34219;-77
2021/12/23 08:51:57;;;;;;;54.38;26.40;;;;;;;-1.04;71.55;100435.22;2080314;85;30551;-69
2021/12/23 08:55:00;;;;;;;55.88;26.52;;;;;;;-0.94;71.37;100432.59;2080508;85;27667;-67
2021/12/23 08:58:04;;;;;;;53.13;26.45;;;;;;;-0.81;71.38;100423.37;2080558;85;28699;-64
2021/12/23 09:01:07;;;;;;;47.83;25.13;;;;;;;-0.72;71.15;100410.66;2080868;85;31222;-68
2021/12/23 09:04:08;;;;;;;46.35;24.10;;;;;;;-0.66;70.96;100407.56;2068917;85;33170;-68
2021/12/23 09:07:12;;;;;;;51.08;26.80;;;;;;;-0.53;70.84;100398.33;2024385;87;30273;-64
2021/12/23 09:10:14;;;;;;;51.20;25.48;;;;;;;-0.42;70.63;100393.04;2024844;86;27685;-66
2021/12/23 09:13:16;;;;;;;50.95;26.77;;;;;;;-0.34;70.47;100380.75;2034970;87;29902;-65
2021/12/23 09:16:18;;;;;;;47.95;25.27;;;;;;;-0.25;70.38;100376.75;2035222;86;32474;-65
2021/12/23 09:19:20;;;;;;;49.50;26.02;;;;;;;-0.18;70.22;100372.33;2046063;86;34326;-66
2021/12/23 09:22:22;;;;;;;53.17;27.98;;;;;;;-0.12;70.07;100365.73;2046342;87;29749;-63
2021/12/23 09:25:26;;;;;;;55.08;32.83;;;;;;;-0.07;69.98;100367.88;2043828;86;27919;-64
2021/12/23 09:28:35;;;;;;;64.45;36.40;;;;;;;0.02;69.97;100364.78;2022052;87;28757;-64
2021/12/23 09:34:52;;;;;;;51.25;30.23;;;;;;;0.17;69.82;100350.20;2004973;88;34198;-65
2021/12/23 09:37:53;;;;;;;56.73;32.00;;;;;;;0.24;69.65;100344.45;2005320;87;29362;-65
2021/12/23 09:41:03;;;;;;;51.98;30.27;;;;;;;0.31;69.70;100343.54;2029926;87;27636;-66
2021/12/23 09:44:08;;;;;;;46.83;28.32;;;;;;;0.37;69.37;100333.39;2037821;87;29705;-63
2021/12/23 09:47:10;;;;;;;44.55;26.90;;;;;;;0.42;69.30;100322.36;2008099;87;30612;-64
2021/12/23 09:50:16;;;;;;;54.27;29.32;;;;;;;0.44;68.87;100311.36;1992660;88;34143;-65
2021/12/23 09:53:22;;;;;;;55.73;32.90;;;;;;;0.43;68.52;100307.86;2029014;87;29332;-62
2021/12/23 09:56:31;;;;;;;50.50;28.05;;;;;;;0.45;68.79;100293.34;2013184;88;27698;-63
2021/12/23 09:59:33;;;;;;;83.85;48.73;;;;;;;0.48;68.79;100281.92;2002085;88;29467;-64
2021/12/23 10:02:35;;;;;;;124.47;61.23;;;;;;;0.52;68.61;100277.03;2009143;88;32337;-63
2021/12/23 10:05:42;;;;;;;114.92;57.25;;;;;;;0.56;68.49;100274.81;1981883;89;29542;-64
2021/12/23 10:08:44;;;;;;;150.07;75.97;;;;;;;0.59;68.41;100273.47;1999020;88;30200;-63
2021/12/23 10:12:34;;;;;;;120.17;62.33;;;;;;;0.63;68.54;100266.39;1999176;89;27750;-65
2021/12/23 10:31:41;;;;;;;45.85;26.50;;;;;;;1.00;67.97;100224.69;2018406;88;29300;-62
2021/12/23 10:37:37;;;;;;;52.48;28.87;;;;;;;1.14;67.86;100217.08;2018097;88;33091;-68
2021/12/23 10:40:44;;;;;;;54.73;28.42;;;;;;;1.18;67.53;100212.17;2017861;88;30554;-63
2021/12/23 10:43:58;;;;;;;48.75;28.07;;;;;;;1.20;67.39;100202.47;2018358;88;27743;-65
2021/12/23 10:47:00;;;;;;;47.48;27.22;;;;;;;1.23;67.23;100193.67;2018271;88;28657;-62
2021/12/23 10:50:48;;;;;;;48.35;27.48;;;;;;;1.23;66.96;100189.70;2018204;88;31488;-63
2021/12/23 10:53:56;;;;;;;44.13;26.23;;;;;;;1.25;67.01;100183.94;2040465;86;33800;-63
2021/12/23 11:00:22;;;;;;;54.77;29.07;;;;;;;1.20;66.45;100152.34;2033750;87;27629;-64
2021/12/23 11:03:32;;;;;;;57.55;31.30;;;;;;;1.17;65.93;100144.03;2033402;87;30027;-64
2021/12/23 11:06:41;;;;;;;62.90;32.93;;;;;;;1.10;66.24;100146.31;2039962;86;32421;-64
2021/12/23 11:10:01;;;;;;;64.55;34.15;;;;;;;1.12;66.23;100142.35;2016945;88;34081;-63
2021/12/23 11:40:06;;;;;;;64.50;34.03;;;;;;;1.23;65.89;100082.84;2023289;87;31873;-62
2021/12/23 11:43:26;;;;;;;59.98;32.35;;;;;;;1.24;66.01;100073.56;2024636;86;33368;-63
2021/12/23 11:46:04;;;;;;;62.17;32.20;;;;;;;1.26;65.73;100051.10;2013304;87;29335;-68
2021/12/23 11:49:09;;;;;;;72.65;46.08;;;;;;;1.25;65.77;100054.20;2003866;87;27728;-72
2021/12/23 11:52:10;;;;;;;48.63;29.10;;;;;;;1.23;65.88;100057.77;2029066;87;28678;-67
2021/12/23 11:55:12;;;;;;;55.65;31.52;;;;;;;1.28;66.21;100039.65;2035909;87;32289;-67
2021/12/23 11:58:14;;;;;;;61.55;32.98;;;;;;;1.31;66.04;100025.09;2038735;87;34372;-73
2021/12/23 12:01:24;;;;;;;145.38;73.22;;;;;;;1.38;66.06;100019.69;2040278;87;29714;-76
2021/12/23 12:04:37;;;;;;;123.05;66.53;;;;;;;1.44;66.13;100012.55;2040298;87;27673;-76
2021/12/23 12:07:43;;;;;;;87.37;48.10;;;;;;;1.52;66.17;99999.22;2040011;87;28904;-80
2021/12/23 12:10:47;;;;;;;78.22;44.88;;;;;;;1.55;65.67;99993.03;2040266;87;31749;-74
2021/12/23 12:13:49;;;;;;;54.60;31.65;;;;;;;1.59;65.68;99990.73;2040271;87;33074;-75
2021/12/23 12:16:51;;;;;;;71.25;38.00;;;;;;;1.58;65.42;99978.00;2040400;87;29343;-68
2021/12/23 12:20:09;;;;;;;56.33;33.08;;;;;;;1.61;65.54;99979.27;2040446;87;27724;-68
2021/12/23 12:23:36;;;;;;;66.12;38.20;;;;;;;1.61;65.22;99979.27;1996071;88;28810;-60
2021/12/23 12:27:03;;;;;;;55.80;33.35;;;;;;;1.65;65.35;99979.64;2009461;88;32265;-61
2021/12/23 12:30:10;;;;;;;67.12;36.03;;;;;;;1.66;65.25;99977.86;2013494;88;33365;-60
2021/12/23 12:33:32;;;;;;;75.03;39.25;;;;;;;1.65;65.19;99966.44;2046219;87;30363;-73
2021/12/23 12:36:48;;;;;;;60.65;34.70;;;;;;;1.67;64.92;99958.02;2046619;87;27741;-64
2021/12/23 12:39:50;;;;;;;63.65;35.25;;;;;;;1.65;65.00;99944.00;2046518;87;29513;-73
2021/12/23 12:42:52;;;;;;;89.28;49.18;;;;;;;1.63;64.68;99935.23;2046572;87;31088;-62
2021/12/23 12:45:55;;;;;;;123.92;67.65;;;;;;;1.60;64.88;99932.64;2046136;87;33222;-67
2021/12/23 12:49:07;;;;;;;74.60;41.55;;;;;;;1.60;64.69;99927.36;2046526;87;29337;-65
2021/12/23 12:52:36;;;;;;;90.50;41.48;;;;;;;1.61;64.87;99925.58;2045876;87;27667;-59
2021/12/23 12:55:38;;;;;;;127.95;66.40;;;;;;;1.61;64.79;99922.50;2046767;87;29076;-61
2021/12/23 12:58:40;;;;;;;163.68;86.32;;;;;;;1.61;64.92;99917.66;2046226;87;32168;-59
2021/12/23 13:01:45;;;;;;;158.52;78.95;;;;;;;1.63;64.73;99906.62;2046174;86;33843;-59
2021/12/23 13:04:56;;;;;;;;;;;;;;;1.62;64.83;99915.00;2048978;87;28942;-71
2021/12/23 13:07:59;;;;;;;243.12;104.12;;;;;;;1.66;64.92;99914.02;2046365;87;27658;-67
2021/12/23 13:11:17;;;;;;;133.97;65.92;;;;;;;1.69;64.87;99921.47;2046505;87;29595;-71
2021/12/23 13:14:23;;;;;;;171.43;88.30;;;;;;;1.68;64.65;99910.05;2046514;87;31131;-73
2021/12/23 13:17:46;;;;;;;128.23;65.67;;;;;;;1.69;64.70;99898.59;2046452;87;32985;-63
2021/12/23 13:20:53;;;;;;;97.85;54.15;;;;;;;1.71;64.75;99887.98;2046094;87;30607;-72
2021/12/23 13:24:00;;;;;;;77.08;46.83;;;;;;;1.71;64.56;99890.62;2046763;87;27599;-72
2021/12/23 13:27:02;;;;;;;59.03;31.97;;;;;;;1.66;64.48;99884.98;2043179;85;29513;-63
2021/12/23 13:30:08;;;;;;;70.37;38.73;;;;;;;1.64;64.40;99889.88;2037938;87;31150;-75
2021/12/23 13:33:12;;;;;;;60.17;35.17;;;;;;;1.62;64.47;99878.47;2038251;87;33042;-76
2021/12/23 13:36:24;;;;;;;65.37;36.25;;;;;;;1.59;64.36;99877.20;2037737;87;30649;-59
2021/12/23 13:39:33;;;;;;;63.95;36.85;;;;;;;1.58;64.47;99876.35;2038049;87;27627;-60
2021/12/23 13:42:41;;;;;;;60.38;32.38;;;;;;;1.59;64.46;99871.92;2038279;87;28701;-59
2021/12/23 13:45:43;;;;;;;63.50;36.65;;;;;;;1.57;64.32;99865.84;2038228;87;31069;-60
2021/12/23 13:48:58;;;;;;;66.10;35.05;;;;;;;1.57;64.40;99863.20;2038087;87;32894;-59
2021/12/23 13:52:00;;;;;;;67.15;38.88;;;;;;;1.55;64.30;99863.20;2037429;87;29799;-60
2021/12/23 13:55:07;;;;;;;99.13;53.33;;;;;;;1.50;64.12;99865.94;2038078;87;27766;-66
2021/12/23 13:58:10;;;;;;;83.27;44.35;;;;;;;1.47;64.20;99857.22;2038387;87;28775;-59
2021/12/23 14:01:12;;;;;;;161.50;79.47;;;;;;;1.44;64.40;99855.49;2038099;87;32053;-66
2021/12/23 14:04:36;;;;;;;75.87;39.80;;;;;;;1.45;64.47;99846.67;2037762;87;34306;-63
2021/12/23 14:07:45;;;;;;;52.27;30.90;;;;;;;1.46;64.48;99840.50;2038309;87;29462;-60
2021/12/23 14:10:48;;;;;;;67.32;37.13;;;;;;;1.45;64.41;99828.67;2038466;87;28237;-64
2021/12/23 14:13:49;;;;;;;55.35;34.25;;;;;;;1.43;64.40;99818.13;2038227;87;28894;-60
2021/12/23 14:16:52;;;;;;;63.00;33.05;;;;;;;1.42;64.48;99816.84;2038110;87;32290;-73
2021/12/23 14:23:40;;;;;;;58.55;32.23;;;;;;;1.33;64.10;99801.59;2038256;87;30673;-73
2021/12/23 14:26:42;;;;;;;67.32;35.33;;;;;;;1.26;63.97;99797.79;2038880;87;27737;-63
2021/12/23 14:29:48;;;;;;;67.37;35.38;;;;;;;1.18;64.19;99794.87;2046278;87;28770;-76
2021/12/23 14:33:12;;;;;;;66.00;35.63;;;;;;;1.15;64.25;99781.73;2046301;87;31771;-63
2021/12/23 14:36:35;;;;;;;67.67;33.38;;;;;;;1.10;64.12;99770.39;2044820;87;32733;-63
2021/12/23 14:39:40;;;;;;;68.33;39.15;;;;;;;1.05;64.18;99757.30;2046421;87;29874;-61
2021/12/23 14:42:42;;;;;;;59.40;32.80;;;;;;;1.03;64.30;99738.45;2046813;87;27668;-61
2021/12/23 14:45:57;;;;;;;61.00;35.10;;;;;;;0.98;64.26;99727.11;2046389;86;29570;-60
2021/12/23 14:52:26;;;;;;;54.00;32.93;;;;;;;0.90;64.29;99717.60;2046599;87;32977;-64
2021/12/23 14:55:33;;;;;;;63.45;32.75;;;;;;;0.89;64.38;99707.95;2046641;86;29775;-73
2021/12/23 14:58:35;;;;;;;60.15;33.30;;;;;;;0.86;64.24;99712.39;2046241;86;27772;-69
2021/12/23 15:01:41;;;;;;;62.48;34.03;;;;;;;0.81;64.08;99707.21;2046428;87;29409;-73
2021/12/23 15:05:08;;;;;;;64.82;34.50;;;;;;;0.79;64.40;99707.69;2046740;87;31048;-78
2021/12/23 15:08:25;;;;;;;64.27;35.05;;;;;;;0.77;64.54;99706.84;2045677;87;32950;-61